createdAt,value
2023-05-09T00:03:55.812Z,16.07
2023-05-09T00:13:58.546Z,16.20
2023-05-09T00:24:01.078Z,15.33
2023-05-09T00:34:02.739Z,14.93
2023-05-09T00:44:05.899Z,13.70
2023-05-09T00:54:09.267Z,13.17
2023-05-09T01:04:13.067Z,12.80
2023-05-09T01:14:56.681Z,13.13
2023-05-09T01:25:06.733Z,9.77
2023-05-09T01:35:10.193Z,10.23
2023-05-09T01:45:13.880Z,9.83
2023-05-09T01:55:17.515Z,10.27
2023-05-09T02:05:19.954Z,9.87
2023-05-09T02:15:22.485Z,10.20
2023-05-09T02:25:24.205Z,9.93
2023-05-09T02:35:27.348Z,9.13
2023-05-09T02:45:29.042Z,8.80
2023-05-09T02:55:31.822Z,8.97
2023-05-09T03:05:33.466Z,9.27
2023-05-09T03:15:35.122Z,9.53
2023-05-09T03:25:36.822Z,9.33
2023-05-09T03:35:38.549Z,8.90
2023-05-09T03:45:40.211Z,9.57
2023-05-09T03:55:41.882Z,10.43
2023-05-09T04:05:43.564Z,9.03
2023-05-09T04:15:45.224Z,9.47
2023-05-09T04:25:46.868Z,10.00
2023-05-09T04:35:48.688Z,9.63
2023-05-09T04:45:50.358Z,9.23
2023-05-09T04:55:52.023Z,9.53
2023-05-09T05:05:53.692Z,10.47
2023-05-09T05:15:56.424Z,10.83
2023-05-09T05:25:58.106Z,10.93
2023-05-09T05:35:59.941Z,10.93
2023-05-09T05:46:01.621Z,11.57
2023-05-09T05:56:03.414Z,11.43
2023-05-09T06:06:05.412Z,11.80
2023-05-09T06:16:17.961Z,10.67
2023-05-09T06:26:22.115Z,9.87
2023-05-09T06:36:24.062Z,9.00
2023-05-09T06:46:26.422Z,7.80
2023-05-09T06:56:28.271Z,7.23
2023-05-09T07:06:30.275Z,6.27
2023-05-09T07:16:31.990Z,5.90
2023-05-09T07:26:35.689Z,6.57
2023-05-09T07:46:42.075Z,6.40
2023-05-09T07:56:43.774Z,6.60
2023-05-09T08:06:45.437Z,6.53
2023-05-09T08:16:47.057Z,6.00
2023-05-09T08:26:48.738Z,5.67
2023-05-09T08:36:50.379Z,6.53
2023-05-09T08:46:58.822Z,5.90
2023-05-09T08:57:01.376Z,5.50
2023-05-09T09:07:05.779Z,5.93
2023-05-09T09:17:09.926Z,5.43
2023-05-09T09:27:11.571Z,4.00
2023-05-09T09:37:23.133Z,4.03
2023-05-09T09:47:32.252Z,3.50
2023-05-09T09:57:38.260Z,3.60
2023-05-09T10:07:39.897Z,3.50
2023-05-09T10:17:41.954Z,3.17
2023-05-09T10:27:46.843Z,2.77
2023-05-09T10:37:49.006Z,3.10
2023-05-09T10:47:53.166Z,3.10
2023-05-09T10:57:55.025Z,2.97
2023-05-09T11:08:19.380Z,3.00
2023-05-09T11:18:21.355Z,2.87
2023-05-09T11:28:31.157Z,2.87
2023-05-09T11:38:44.070Z,2.87
2023-05-09T11:48:45.772Z,2.60
2023-05-09T11:58:52.876Z,2.83
2023-05-09T12:08:56.776Z,2.70
2023-05-09T12:18:58.385Z,2.60
2023-05-09T12:29:00.186Z,2.27
2023-05-09T12:39:01.962Z,2.57
2023-05-09T12:49:03.625Z,2.87
2023-05-09T12:59:10.927Z,2.67
2023-05-09T13:09:12.881Z,2.23
2023-05-09T13:19:14.654Z,2.63
2023-05-09T13:29:16.498Z,2.40
2023-05-09T13:39:18.157Z,2.37
2023-05-09T13:49:19.904Z,2.20
2023-05-09T13:59:21.688Z,2.20
2023-05-09T14:09:23.622Z,2.00
2023-05-09T14:19:27.126Z,1.90
2023-05-09T14:29:28.940Z,2.22
2023-05-09T14:39:30.667Z,2.20
2023-05-09T14:49:32.753Z,1.65
2023-05-09T14:59:36.829Z,2.58
2023-05-09T15:09:38.867Z,1.85
2023-05-09T15:19:41.724Z,1.60
2023-05-09T15:29:44.314Z,1.75
2023-05-09T15:39:46.286Z,1.90
2023-05-09T15:49:47.903Z,1.80
2023-05-09T15:59:49.571Z,1.92
2023-05-09T16:09:51.201Z,1.90
2023-05-09T16:19:52.932Z,1.90
2023-05-09T16:29:54.853Z,2.28
2023-05-09T16:39:57.783Z,2.22
2023-05-09T16:49:59.705Z,2.10
2023-05-09T17:00:01.489Z,2.10
2023-05-09T17:10:03.950Z,2.10
2023-05-09T17:20:06.303Z,1.97
2023-05-09T17:30:08.709Z,2.00
2023-05-09T17:40:10.715Z,2.03
2023-05-09T17:50:17.088Z,2.37
2023-05-09T18:00:19.742Z,2.30
2023-05-09T18:10:24.383Z,2.60
2023-05-09T18:20:26.065Z,2.47
2023-05-09T18:30:27.793Z,2.57
2023-05-09T18:40:29.845Z,2.70
2023-05-09T18:50:31.599Z,2.57
2023-05-09T19:00:34.778Z,2.40
2023-05-09T19:10:37.965Z,2.10
2023-05-09T19:20:39.623Z,2.00
2023-05-09T19:30:41.277Z,1.50
2023-05-09T19:40:42.962Z,1.20
2023-05-09T19:50:45.871Z,1.33
2023-05-09T20:00:48.483Z,1.20
2023-05-09T20:10:50.317Z,1.87
2023-05-09T20:20:52.021Z,2.67
2023-05-09T20:30:53.704Z,2.80
2023-05-09T20:40:55.393Z,2.73
2023-05-09T20:50:57.013Z,2.60
2023-05-09T21:00:58.715Z,2.50
2023-05-09T21:11:00.346Z,2.30
2023-05-09T21:21:05.282Z,2.30
2023-05-09T21:31:09.740Z,1.90
2023-05-09T21:41:12.886Z,2.10
2023-05-09T21:51:15.140Z,2.20
2023-05-09T22:01:17.847Z,1.90
2023-05-09T22:11:20.073Z,1.90
2023-05-09T22:21:21.756Z,2.20
2023-05-09T22:31:23.467Z,1.90
2023-05-09T22:41:25.135Z,1.80
2023-05-09T22:51:27.732Z,2.80
2023-05-09T23:01:29.410Z,1.93
2023-05-09T23:11:31.088Z,2.17
2023-05-09T23:21:32.712Z,2.00
2023-05-09T23:31:35.309Z,2.23
2023-05-09T23:41:36.937Z,1.70
2023-05-09T23:51:38.798Z,1.50
